createdAt,value
2018-01-05T00:14:37.252Z,0.4
2018-01-05T00:34:37.524Z,0.3
2018-01-05T00:49:37.568Z,2.2
2018-01-05T01:04:37.565Z,2.3
2018-01-05T01:24:37.796Z,1.7
2018-01-05T01:39:37.770Z,2.6
2018-01-05T01:54:37.589Z,1.6
2018-01-05T02:09:37.613Z,0.7
2018-01-05T02:29:37.620Z,0.5
2018-01-05T02:44:37.704Z,4.8
2018-01-05T02:59:37.767Z,0.1
2018-01-05T03:19:37.794Z,1.1
2018-01-05T03:34:37.707Z,5.2
2018-01-05T03:49:37.785Z,1.2
2018-01-05T04:04:37.738Z,5.6
2018-01-05T04:24:37.673Z,2.2
2018-01-05T04:39:37.765Z,7
2018-01-05T04:54:37.745Z,13.9
2018-01-05T05:14:37.892Z,5
2018-01-05T05:29:37.752Z,1.8
2018-01-05T05:44:37.750Z,6
2018-01-05T05:59:47.711Z,3.6
2018-01-05T06:19:37.906Z,25.5
2018-01-05T06:34:37.937Z,12.8
2018-01-05T06:49:37.886Z,7.1
2018-01-05T07:09:37.933Z,12
2018-01-05T07:24:37.890Z,9.9
2018-01-05T07:39:37.795Z,5.3
2018-01-05T07:59:37.775Z,17.1
2018-01-05T08:14:37.972Z,24.2
2018-01-05T08:29:38.085Z,31.7
2018-01-05T08:44:37.848Z,22.1
2018-01-05T09:04:37.784Z,19.2
2018-01-05T09:19:37.965Z,15.9
2018-01-05T09:34:37.884Z,41.2
2018-01-05T09:54:38.053Z,18.9
2018-01-05T10:24:37.897Z,7.7
2018-01-05T10:39:37.876Z,6.2
2018-01-05T10:59:38.138Z,6.4
2018-01-05T11:14:37.923Z,1.2
2018-01-05T11:29:37.896Z,1.4
2018-01-05T11:49:38.094Z,3.1
2018-01-05T12:04:37.949Z,2.1
2018-01-05T12:19:37.967Z,3.3
2018-01-05T12:54:37.995Z,1.1
2018-01-05T13:09:38.082Z,1.3
2018-01-05T13:24:38.039Z,2.3
2018-01-05T13:44:37.985Z,1.6
2018-01-05T13:59:38.129Z,1
2018-01-05T14:14:38.170Z,2.4
2018-01-05T14:34:38.078Z,4.4
2018-01-05T14:49:38.020Z,1.8
2018-01-05T15:19:38.418Z,13.5
2018-01-05T15:39:38.423Z,15
2018-01-05T15:54:38.469Z,6.3
2018-01-05T16:09:38.470Z,15.2
2018-01-05T16:29:38.420Z,13.6
2018-01-05T16:44:38.450Z,20.5
2018-01-05T16:59:38.648Z,15.3
2018-01-05T17:14:38.438Z,23.1
2018-01-05T17:34:38.500Z,22.2
2018-01-05T17:49:38.559Z,22.3
2018-01-05T18:04:38.545Z,15.5
2018-01-05T18:24:38.924Z,18.2
2018-01-05T18:39:38.557Z,13.9
2018-01-05T18:54:38.515Z,9.5
2018-01-05T19:29:38.675Z,21.6
2018-01-05T19:44:38.657Z,18.9
2018-01-05T19:59:38.598Z,11.3
2018-01-05T20:19:38.648Z,18.4
2018-01-05T20:49:40.298Z,12.5
2018-01-05T21:09:39.030Z,18.1
2018-01-05T21:54:39.080Z,23.4
2018-01-05T22:14:39.167Z,22
2018-01-05T22:29:39.082Z,19.2
2018-01-05T22:44:39.076Z,15.7
2018-01-05T23:04:39.113Z,11.9
2018-01-05T23:19:39.133Z,15.8
2018-01-05T23:34:40.353Z,14.6
2018-01-05T23:49:39.145Z,12.1
